Time;durP1;ratioP1;P1;durP2;ratioP2;P2;SDS_P1;SDS_P2;PMS_P1;PMS_P2;Temp;Humidity;BMP_temperature;BMP_pressure;BME280_temperature;BME280_humidity;BME280_pressure;Samples;Min_cycle;Max_cycle;Signal;HPM_P1;HPM_P2
2021/03/18 00:01:35;;;;;;;49.35;10.40;;;7.70;99.90;;;;;;4982998;28;20046;-90
2021/03/18 00:04:04;;;;;;;39.53;10.25;;;7.70;99.90;;;;;;4990677;28;20143;-90
2021/03/18 00:06:32;;;;;;;54.00;10.48;;;7.70;99.90;;;;;;5000614;28;20049;-90
2021/03/18 00:08:59;;;;;;;49.53;9.63;;;7.70;99.90;;;;;;4998306;28;20049;-90
2021/03/18 00:11:28;;;;;;;48.03;9.85;;;7.70;99.90;;;;;;5009804;28;20060;-90
2021/03/18 00:13:56;;;;;;;53.28;10.02;;;7.60;99.90;;;;;;5016403;28;20041;-90
2021/03/18 00:16:23;;;;;;;53.53;12.38;;;7.60;99.90;;;;;;5010452;28;21759;-91
2021/03/18 00:18:53;;;;;;;51.50;12.15;;;7.60;99.90;;;;;;5012957;28;20084;-90
2021/03/18 00:21:22;;;;;;;62.60;10.93;;;7.60;99.90;;;;;;5019310;28;20131;-90
2021/03/18 00:23:50;;;;;;;56.50;10.85;;;7.50;99.90;;;;;;5018481;28;20049;-90
2021/03/18 00:26:23;;;;;;;49.85;11.18;;;7.50;99.90;;;;;;5010608;28;20077;-90
2021/03/18 00:28:50;;;;;;;48.38;11.02;;;7.50;99.90;;;;;;5011998;28;20045;-90
2021/03/18 00:31:22;;;;;;;51.38;10.98;;;7.50;99.90;;;;;;5011194;28;20083;-90
2021/03/18 00:33:50;;;;;;;54.90;10.52;;;7.40;99.90;;;;;;5012926;28;20084;-90
2021/03/18 00:36:18;;;;;;;49.20;10.98;;;7.40;99.90;;;;;;5008674;28;20046;-90
2021/03/18 00:38:46;;;;;;;39.55;9.30;;;7.40;99.90;;;;;;5000203;28;20068;-91
2021/03/18 00:41:13;;;;;;;50.67;10.38;;;7.30;99.90;;;;;;4997965;28;20068;-90
2021/03/18 00:43:41;;;;;;;52.90;9.38;;;7.30;99.90;;;;;;4997377;28;20049;-91
2021/03/18 00:46:09;;;;;;;52.83;9.63;;;7.30;99.90;;;;;;5010846;28;20403;-90
2021/03/18 00:48:37;;;;;;;42.08;8.93;;;7.20;99.90;;;;;;5009710;28;20065;-90
2021/03/18 00:51:12;;;;;;;50.58;9.63;;;7.20;99.90;;;;;;5012311;28;20049;-90
2021/03/18 00:53:41;;;;;;;54.08;10.02;;;7.20;99.90;;;;;;5009559;28;20041;-90
2021/03/18 00:56:12;;;;;;;49.58;9.98;;;7.10;99.90;;;;;;5010372;28;20430;-90
2021/03/18 00:58:41;;;;;;;53.83;10.48;;;7.10;99.90;;;;;;5010681;28;20042;-90
2021/03/18 01:01:09;;;;;;;44.20;9.20;;;7.10;99.90;;;;;;5009422;28;20061;-90
2021/03/18 01:03:39;;;;;;;47.00;9.40;;;7.10;99.90;;;;;;5010600;28;20713;-90
2021/03/18 01:06:11;;;;;;;49.92;10.15;;;7.00;99.90;;;;;;5004984;28;20042;-90
2021/03/18 01:08:39;;;;;;;47.13;9.80;;;7.00;99.90;;;;;;5005899;28;20037;-90
2021/03/18 01:11:20;;;;;;;45.03;10.00;;;7.00;99.90;;;;;;5009917;28;20041;-91
2021/03/18 01:13:51;;;;;;;39.33;9.25;;;7.00;99.90;;;;;;5012040;28;20045;-90
2021/03/18 01:16:20;;;;;;;44.92;9.77;;;6.90;99.90;;;;;;5008696;28;20049;-90
2021/03/18 01:18:56;;;;;;;49.45;9.50;;;6.90;99.90;;;;;;5013255;28;20053;-90
2021/03/18 01:21:27;;;;;;;47.20;10.10;;;6.80;99.90;;;;;;5011562;28;20079;-90
2021/03/18 01:23:54;;;;;;;44.33;9.57;;;6.80;99.90;;;;;;5011276;28;20042;-89
2021/03/18 01:26:21;;;;;;;45.97;10.27;;;6.80;99.90;;;;;;5014697;28;20053;-89
2021/03/18 01:28:48;;;;;;;46.25;10.07;;;6.70;99.90;;;;;;5014485;28;20038;-89
2021/03/18 01:31:16;;;;;;;42.90;10.15;;;6.70;99.90;;;;;;5014408;28;20053;-90
2021/03/18 01:33:44;;;;;;;49.75;10.05;;;6.70;99.90;;;;;;5014851;28;20045;-90
2021/03/18 01:36:12;;;;;;;50.40;10.05;;;6.70;99.90;;;;;;5011346;28;20541;-90
2021/03/18 01:38:41;;;;;;;45.70;10.20;;;6.60;99.90;;;;;;5012739;28;20049;-90
2021/03/18 01:41:08;;;;;;;35.22;8.82;;;6.60;99.90;;;;;;5010568;28;20038;-89
2021/03/18 01:43:35;;;;;;;40.97;9.07;;;6.60;99.90;;;;;;5013231;28;20057;-90
2021/03/18 01:46:03;;;;;;;34.65;8.43;;;6.60;99.90;;;;;;5014545;28;20049;-89
2021/03/18 01:48:31;;;;;;;39.70;8.95;;;6.50;99.90;;;;;;5012865;28;20364;-90
2021/03/18 01:50:59;;;;;;;38.70;9.13;;;6.50;99.90;;;;;;5010243;28;20136;-90
2021/03/18 01:53:27;;;;;;;41.72;10.35;;;6.50;99.90;;;;;;5009594;28;20084;-90
2021/03/18 01:55:57;;;;;;;52.65;10.20;;;6.40;99.90;;;;;;5015638;28;20521;-90
2021/03/18 01:58:25;;;;;;;37.38;10.20;;;6.40;99.90;;;;;;5013151;28;20127;-90
2021/03/18 02:00:59;;;;;;;45.10;10.30;;;6.40;99.90;;;;;;5015871;28;20514;-90
2021/03/18 02:03:27;;;;;;;40.17;9.93;;;6.40;99.90;;;;;;5010601;28;20045;-90
2021/03/18 02:05:55;;;;;;;51.08;11.10;;;6.30;99.90;;;;;;5019782;28;20075;-89
2021/03/18 02:08:22;;;;;;;39.85;9.60;;;6.30;99.90;;;;;;5007260;28;20053;-90
2021/03/18 02:10:51;;;;;;;36.35;8.88;;;6.30;99.90;;;;;;5002940;28;20803;-90
2021/03/18 02:13:19;;;;;;;44.05;10.05;;;6.30;99.90;;;;;;4976779;28;20061;-90
2021/03/18 02:15:51;;;;;;;32.80;9.93;;;6.30;99.90;;;;;;5000122;28;20049;-90
2021/03/18 02:18:50;;;;;;;35.63;9.30;;;6.20;99.90;;;;;;4997678;28;20050;-90
2021/03/18 02:21:38;;;;;;;44.45;9.73;;;6.20;99.90;;;;;;4992417;28;20182;-90
2021/03/18 02:24:34;;;;;;;32.78;9.52;;;6.20;99.90;;;;;;5002814;28;20046;-90
2021/03/18 02:27:38;;;;;;;34.53;9.90;;;6.20;99.90;;;;;;4981406;28;20053;-90
2021/03/18 02:30:24;;;;;;;34.60;9.57;;;6.20;99.90;;;;;;4997450;28;20483;-89
2021/03/18 02:32:54;;;;;;;37.70;10.50;;;6.10;99.90;;;;;;4997327;28;20439;-90
2021/03/18 02:35:39;;;;;;;35.65;10.02;;;6.10;99.90;;;;;;4999341;28;20050;-90
2021/03/18 02:38:23;;;;;;;35.65;10.43;;;6.10;99.90;;;;;;4995800;28;20061;-90
2021/03/18 02:41:02;;;;;;;43.45;11.15;;;6.00;99.90;;;;;;5008934;28;20125;-89
2021/03/18 02:43:35;;;;;;;37.20;9.65;;;6.00;99.90;;;;;;4989600;28;20042;-90
2021/03/18 02:46:03;;;;;;;41.95;11.55;;;6.00;99.90;;;;;;5000423;28;20085;-89
2021/03/18 02:48:33;;;;;;;35.50;10.07;;;5.90;99.90;;;;;;4978977;28;20101;-90
2021/03/18 02:51:02;;;;;;;36.58;11.02;;;5.90;99.90;;;;;;4994806;28;20057;-89
2021/03/18 02:53:31;;;;;;;43.22;11.18;;;5.90;99.90;;;;;;5004603;28;20117;-90
2021/03/18 02:56:02;;;;;;;43.65;11.77;;;5.90;99.90;;;;;;4996254;28;20112;-89
2021/03/18 02:58:34;;;;;;;51.85;11.48;;;5.90;99.90;;;;;;4978002;28;20042;-90
2021/03/18 03:01:05;;;;;;;33.58;11.13;;;5.90;99.90;;;;;;4993143;28;20050;-90
2021/03/18 03:03:40;;;;;;;;;;;5.80;99.90;;;;;;4988525;28;20100;-90
2021/03/18 03:06:09;;;;;;;42.28;12.00;;;5.80;99.90;;;;;;4994777;28;19952;-90
2021/03/18 03:08:38;;;;;;;35.85;11.00;;;5.80;99.90;;;;;;4995670;28;20045;-89
2021/03/18 03:11:06;;;;;;;35.85;10.65;;;5.70;99.90;;;;;;5002353;28;20545;-90
2021/03/18 03:13:38;;;;;;;29.27;10.25;;;5.70;99.90;;;;;;4982673;28;20057;-90
2021/03/18 03:16:10;;;;;;;39.95;11.32;;;5.60;99.90;;;;;;4996853;28;20045;-90
2021/03/18 03:18:39;;;;;;;43.47;10.63;;;5.60;99.90;;;;;;4996645;28;20046;-90
2021/03/18 03:21:07;;;;;;;39.22;9.48;;;5.60;99.90;;;;;;4993879;28;20049;-90
2021/03/18 03:23:35;;;;;;;32.65;10.18;;;5.60;99.90;;;;;;5010052;28;20042;-90
2021/03/18 03:26:03;;;;;;;28.80;8.90;;;5.50;99.90;;;;;;4994066;28;20046;-90
2021/03/18 03:28:31;;;;;;;32.40;9.00;;;5.50;99.90;;;;;;4998886;28;20042;-90
2021/03/18 03:31:00;;;;;;;36.08;9.73;;;5.50;99.90;;;;;;4991134;28;20046;-90
2021/03/18 03:33:27;;;;;;;30.77;8.80;;;5.50;99.90;;;;;;5009991;28;20464;-90
2021/03/18 03:35:56;;;;;;;31.83;9.32;;;5.50;99.90;;;;;;4995235;28;20042;-90
2021/03/18 03:38:23;;;;;;;28.23;9.05;;;5.40;99.90;;;;;;4992010;28;20042;-90
2021/03/18 03:40:51;;;;;;;29.08;9.20;;;5.40;99.90;;;;;;4996194;28;20507;-90
2021/03/18 03:43:19;;;;;;;30.98;8.60;;;5.40;99.90;;;;;;4988977;28;20476;-90
2021/03/18 03:45:48;;;;;;;25.17;10.13;;;5.40;99.90;;;;;;4993914;28;20042;-90
2021/03/18 03:48:16;;;;;;;28.25;9.13;;;5.40;99.90;;;;;;4991495;28;20129;-89
2021/03/18 03:50:44;;;;;;;34.17;9.43;;;5.40;99.90;;;;;;4990007;28;20157;-90
2021/03/18 03:53:19;;;;;;;29.90;8.32;;;5.30;99.90;;;;;;4997973;28;20069;-90
2021/03/18 03:56:00;;;;;;;32.92;9.85;;;5.30;99.90;;;;;;4995772;28;20044;-90
2021/03/18 03:58:51;;;;;;;25.98;8.27;;;5.30;99.90;;;;;;4990924;28;20056;-90
2021/03/18 04:01:35;;;;;;;27.42;9.77;;;5.30;99.90;;;;;;5006752;28;20053;-90
2021/03/18 04:04:34;;;;;;;25.02;8.55;;;5.30;99.90;;;;;;4993670;28;20049;-90
2021/03/18 04:07:14;;;;;;;25.20;8.57;;;5.20;99.90;;;;;;4991128;28;20390;-89
2021/03/18 04:09:44;;;;;;;29.50;8.35;;;5.20;99.90;;;;;;4990158;28;20113;-90
2021/03/18 04:12:17;;;;;;;28.75;8.20;;;5.20;99.90;;;;;;4990509;28;20042;-89
2021/03/18 04:14:56;;;;;;;26.95;8.75;;;5.10;99.90;;;;;;4992880;28;20467;-90
2021/03/18 04:17:24;;;;;;;28.50;8.38;;;5.10;99.90;;;;;;4988624;28;20037;-89
2021/03/18 04:19:57;;;;;;;26.63;8.38;;;5.00;99.90;;;;;;4989386;28;20519;-90
2021/03/18 04:22:27;;;;;;;26.63;8.15;;;5.00;99.90;;;;;;4989756;28;20094;-90
2021/03/18 04:24:57;;;;;;;22.50;8.50;;;5.00;99.90;;;;;;4991207;28;20052;-90
2021/03/18 04:27:26;;;;;;;26.10;8.07;;;4.90;99.90;;;;;;4988602;28;20080;-89
2021/03/18 04:29:56;;;;;;;21.73;7.72;;;4.90;99.90;;;;;;4992244;28;20049;-89
2021/03/18 04:32:24;;;;;;;28.73;8.13;;;4.90;99.90;;;;;;4986320;28;20042;-89
2021/03/18 04:34:52;;;;;;;20.45;7.63;;;4.80;99.90;;;;;;4993549;28;20050;-90
2021/03/18 04:37:20;;;;;;;22.13;8.30;;;4.80;99.90;;;;;;4989657;28;20077;-90
2021/03/18 04:39:48;;;;;;;23.40;6.90;;;4.80;99.90;;;;;;4989882;28;20601;-90
2021/03/18 04:42:16;;;;;;;23.65;7.35;;;4.70;99.90;;;;;;4979774;28;20100;-90
2021/03/18 04:44:44;;;;;;;22.65;6.80;;;4.70;99.90;;;;;;4993052;28;20045;-90
2021/03/18 04:47:19;;;;;;;22.30;6.93;;;4.70;99.90;;;;;;4991468;28;20131;-90
2021/03/18 04:49:48;;;;;;;25.30;7.63;;;4.70;99.90;;;;;;4992982;28;20042;-90
2021/03/18 04:52:17;;;;;;;16.38;6.78;;;4.60;99.90;;;;;;4991130;28;20080;-90
2021/03/18 04:54:45;;;;;;;16.60;6.55;;;4.60;99.90;;;;;;4991724;28;20361;-89
2021/03/18 04:57:18;;;;;;;26.50;6.82;;;4.60;99.90;;;;;;4987825;28;20105;-90
2021/03/18 04:59:47;;;;;;;17.17;6.03;;;4.50;99.90;;;;;;4992707;28;20045;-90
2021/03/18 05:02:17;;;;;;;18.60;6.47;;;4.50;99.90;;;;;;4990334;28;20034;-90
2021/03/18 05:04:45;;;;;;;29.05;7.93;;;4.50;99.90;;;;;;4991462;28;20042;-90
2021/03/18 05:07:14;;;;;;;16.92;6.03;;;4.50;99.90;;;;;;4984210;28;20480;-89
2021/03/18 05:09:43;;;;;;;22.33;7.30;;;4.50;99.90;;;;;;4993016;28;20111;-89
2021/03/18 05:12:11;;;;;;;16.95;6.25;;;4.50;99.90;;;;;;4990584;28;20050;-90
2021/03/18 05:14:39;;;;;;;20.77;6.90;;;4.40;99.90;;;;;;4996530;28;20038;-89
2021/03/18 05:17:07;;;;;;;18.90;6.65;;;4.40;99.90;;;;;;4990686;28;20057;-90
2021/03/18 05:19:35;;;;;;;19.13;7.22;;;4.40;99.90;;;;;;4991348;28;20543;-90
2021/03/18 05:22:04;;;;;;;16.25;5.97;;;4.40;99.90;;;;;;5004235;28;20078;-90
2021/03/18 05:24:32;;;;;;;18.25;6.40;;;4.40;99.90;;;;;;4991589;28;20125;-89
2021/03/18 05:27:00;;;;;;;18.20;6.25;;;4.30;99.90;;;;;;4996956;28;20038;-89
2021/03/18 05:29:27;;;;;;;16.33;5.88;;;4.30;99.90;;;;;;4988629;28;20054;-89
2021/03/18 05:31:55;;;;;;;14.68;5.78;;;4.30;99.90;;;;;;4998720;28;20129;-89
2021/03/18 05:34:22;;;;;;;15.63;5.57;;;4.40;99.90;;;;;;5000703;28;20056;-89
2021/03/18 05:36:51;;;;;;;19.65;6.03;;;4.40;99.90;;;;;;4993029;28;20062;-90
2021/03/18 05:39:18;;;;;;;22.52;6.90;;;4.40;99.90;;;;;;4989323;28;20042;-90
2021/03/18 05:41:46;;;;;;;16.20;5.50;;;4.30;99.90;;;;;;4992893;28;20072;-89
2021/03/18 05:44:13;;;;;;;19.17;6.78;;;4.40;99.90;;;;;;4995438;28;20455;-84
2021/03/18 05:46:41;;;;;;;24.42;6.45;;;4.30;99.90;;;;;;4989873;28;20430;-90
2021/03/18 05:49:12;;;;;;;17.73;5.82;;;4.30;99.90;;;;;;4994829;28;20338;-90
2021/03/18 05:51:43;;;;;;;19.52;6.35;;;4.30;99.90;;;;;;4998849;28;20054;-90
2021/03/18 05:54:14;;;;;;;15.13;5.13;;;4.40;99.90;;;;;;4982571;28;20061;-89
2021/03/18 05:56:42;;;;;;;17.88;5.25;;;4.30;99.90;;;;;;4991243;28;20104;-90
2021/03/18 05:59:12;;;;;;;16.73;5.75;;;4.30;99.90;;;;;;4988043;28;20049;-93
2021/03/18 06:01:40;;;;;;;15.52;6.93;;;4.30;99.90;;;;;;4990903;28;20611;-90
2021/03/18 06:04:08;;;;;;;12.80;4.90;;;4.30;99.90;;;;;;4989318;28;20046;-89
2021/03/18 06:06:38;;;;;;;21.27;10.05;;;4.30;99.90;;;;;;4994541;28;20061;-90
2021/03/18 06:09:07;;;;;;;20.90;6.15;;;4.30;99.90;;;;;;4996831;28;20455;-90
2021/03/18 06:11:34;;;;;;;;;;;4.30;99.90;;;;;;5019072;28;20037;-90
2021/03/18 06:14:02;;;;;;;12.07;4.15;;;4.30;99.90;;;;;;5014037;28;19921;-90
2021/03/18 06:16:30;;;;;;;10.55;4.07;;;4.20;99.90;;;;;;5025271;28;20050;-88
2021/03/18 06:18:59;;;;;;;13.75;4.75;;;4.20;99.90;;;;;;5015694;28;20060;-88
2021/03/18 06:21:52;;;;;;;;;;;4.20;99.90;;;;;;5014824;28;20124;-90
2021/03/18 06:24:22;;;;;;;14.60;4.93;;;4.20;99.90;;;;;;5002623;28;19928;-90
2021/03/18 06:26:49;;;;;;;;;;;4.20;99.90;;;;;;5012729;28;20053;-90
2021/03/18 06:29:30;;;;;;;15.23;4.80;;;4.20;99.90;;;;;;5011545;28;19921;-90
2021/03/18 06:32:13;;;;;;;17.35;4.93;;;4.20;99.90;;;;;;5016406;28;20045;-90
2021/03/18 06:34:51;;;;;;;12.15;4.53;;;4.20;99.90;;;;;;5021553;28;20470;-90
2021/03/18 06:37:50;;;;;;;14.70;4.75;;;4.20;99.90;;;;;;5017779;28;20056;-88
2021/03/18 06:40:19;;;;;;;17.90;4.63;;;4.20;99.90;;;;;;5014475;28;20092;-90
2021/03/18 06:42:54;;;;;;;12.13;4.72;;;4.20;99.90;;;;;;5016314;28;20368;-90
2021/03/18 06:45:22;;;;;;;14.70;4.90;;;4.20;99.90;;;;;;5013363;28;20048;-89
2021/03/18 06:47:54;;;;;;;13.00;5.38;;;4.30;99.90;;;;;;5009591;28;20046;-89
2021/03/18 06:50:32;;;;;;;17.52;5.13;;;4.30;99.90;;;;;;5012997;28;20049;-89
2021/03/18 06:53:01;;;;;;;10.88;4.65;;;4.30;99.90;;;;;;5019958;28;20056;-90
2021/03/18 06:55:33;;;;;;;11.40;5.10;;;4.40;99.90;;;;;;5016861;28;20092;-90
2021/03/18 06:58:25;;;;;;;22.10;5.63;;;4.40;99.90;;;;;;5009250;28;20042;-90
2021/03/18 07:01:06;;;;;;;8.23;4.05;;;4.50;99.90;;;;;;5011174;28;20407;-91
2021/03/18 07:03:36;;;;;;;19.42;5.47;;;4.60;99.90;;;;;;5013392;28;20037;-90
2021/03/18 07:06:09;;;;;;;14.90;4.63;;;4.60;99.90;;;;;;5012488;28;20042;-90
2021/03/18 07:08:38;;;;;;;11.45;4.30;;;4.70;99.90;;;;;;5010654;28;20065;-91
2021/03/18 07:11:21;;;;;;;12.52;4.75;;;4.70;99.90;;;;;;5010550;28;20043;-90
2021/03/18 07:13:49;;;;;;;16.02;4.85;;;4.80;99.90;;;;;;5012921;28;20459;-88
2021/03/18 07:16:17;;;;;;;16.08;4.80;;;4.90;99.90;;;;;;5008241;28;20100;-90
2021/03/18 07:18:56;;;;;;;11.35;3.95;;;5.00;99.90;;;;;;5008259;28;20092;-88
2021/03/18 07:21:39;;;;;;;10.23;4.00;;;5.10;99.90;;;;;;5008409;28;20053;-89
2021/03/18 07:24:22;;;;;;;14.80;4.15;;;5.20;99.90;;;;;;5008477;28;20399;-87
2021/03/18 07:26:49;;;;;;;15.27;3.83;;;5.40;99.90;;;;;;5014715;28;20051;-87
2021/03/18 07:29:17;;;;;;;18.27;3.75;;;5.50;99.90;;;;;;5009478;28;20056;-87
2021/03/18 07:31:47;;;;;;;14.90;4.47;;;5.60;99.90;;;;;;5011927;28;20041;-87
2021/03/18 07:34:15;;;;;;;13.75;4.07;;;5.60;99.90;;;;;;5012623;28;20073;-87
2021/03/18 07:36:46;;;;;;;12.68;3.92;;;5.70;99.90;;;;;;5029162;28;20042;-87
2021/03/18 07:39:13;;;;;;;10.75;4.55;;;5.80;99.90;;;;;;5013101;28;20103;-89
2021/03/18 07:41:42;;;;;;;10.35;3.40;;;5.90;99.90;;;;;;5013409;28;20074;-87
2021/03/18 07:44:09;;;;;;;18.67;4.20;;;6.00;99.90;;;;;;5013207;28;20075;-88
2021/03/18 07:46:37;;;;;;;14.52;3.40;;;6.10;99.90;;;;;;5011967;28;20041;-87
2021/03/18 07:49:09;;;;;;;;;;;6.10;99.90;;;;;;5013105;28;20045;-87
2021/03/18 07:51:40;;;;;;;14.88;4.38;;;6.20;99.90;;;;;;5011096;28;19921;-87
2021/03/18 07:54:07;;;;;;;15.80;4.63;;;6.30;99.90;;;;;;5011697;28;20452;-88
2021/03/18 07:56:35;;;;;;;12.77;3.92;;;6.40;99.90;;;;;;5013165;28;20100;-86
2021/03/18 07:59:07;;;;;;;11.32;3.15;;;6.40;99.90;;;;;;5014399;28;20072;-87
2021/03/18 08:01:36;;;;;;;16.92;4.47;;;6.50;99.90;;;;;;5012777;28;20395;-89
2021/03/18 08:04:09;;;;;;;11.55;3.72;;;6.60;99.90;;;;;;5014968;28;20132;-88
2021/03/18 08:06:51;;;;;;;11.82;3.13;;;6.70;99.90;;;;;;5014935;28;20037;-88
2021/03/18 08:09:37;;;;;;;10.07;3.13;;;6.80;99.90;;;;;;5013027;28;20049;-88
2021/03/18 08:12:06;;;;;;;10.23;3.42;;;7.00;99.90;;;;;;5010224;28;20073;-88
2021/03/18 08:14:33;;;;;;;12.30;3.00;;;7.10;99.90;;;;;;5008164;28;20073;-87
2021/03/18 08:17:00;;;;;;;9.75;2.90;;;7.20;99.90;;;;;;5002202;28;20081;-87
2021/03/18 08:19:40;;;;;;;9.93;2.83;;;7.30;99.90;;;;;;5011155;28;20057;-88
2021/03/18 08:22:27;;;;;;;8.98;2.97;;;7.50;99.90;;;;;;5009369;28;20079;-88
2021/03/18 08:25:14;;;;;;;10.27;2.77;;;7.60;99.90;;;;;;5031150;28;20387;-87
2021/03/18 08:27:41;;;;;;;8.77;2.78;;;7.70;99.90;;;;;;5012577;28;20095;-87
2021/03/18 08:30:21;;;;;;;12.38;3.10;;;7.80;99.90;;;;;;5013663;28;20048;-88
2021/03/18 08:32:47;;;;;;;10.55;2.85;;;7.90;99.90;;;;;;5012382;28;20053;-87
2021/03/18 08:35:26;;;;;;;10.95;2.70;;;8.00;99.90;;;;;;5010919;28;20048;-88
2021/03/18 08:38:15;;;;;;;11.98;3.33;;;8.10;99.90;;;;;;5014647;28;20041;-87
2021/03/18 08:40:59;;;;;;;19.80;3.42;;;8.20;99.90;;;;;;4996881;28;20056;-87
2021/03/18 08:43:26;;;;;;;14.70;3.63;;;8.30;99.90;;;;;;5027845;28;20050;-88
2021/03/18 08:45:53;;;;;;;12.75;3.47;;;8.40;99.90;;;;;;5013918;28;20049;-88
2021/03/18 08:48:21;;;;;;;15.95;3.08;;;8.50;99.90;;;;;;5000340;28;20046;-88
2021/03/18 08:50:49;;;;;;;11.68;3.00;;;8.60;99.90;;;;;;5001213;28;20091;-88
2021/03/18 08:53:35;;;;;;;11.90;2.70;;;8.70;99.90;;;;;;5012136;28;20064;-88
2021/03/18 08:56:03;;;;;;;12.85;3.63;;;8.70;99.90;;;;;;5013418;28;20136;-88
2021/03/18 08:58:43;;;;;;;12.15;3.58;;;8.80;99.90;;;;;;5011952;28;20873;-88
2021/03/18 09:01:15;;;;;;;8.32;3.03;;;8.90;99.90;;;;;;5009226;28;20052;-87
2021/03/18 09:03:42;;;;;;;9.48;3.22;;;9.00;99.90;;;;;;5011444;28;20045;-88
2021/03/18 09:06:09;;;;;;;15.57;3.38;;;9.10;99.90;;;;;;5009372;28;20469;-87
2021/03/18 09:08:36;;;;;;;14.13;3.42;;;9.20;99.90;;;;;;5018811;28;20045;-88
2021/03/18 09:11:03;;;;;;;11.32;3.20;;;9.20;99.90;;;;;;5020613;28;20057;-87
2021/03/18 09:13:31;;;;;;;12.18;3.25;;;9.40;99.90;;;;;;5014502;28;20061;-87
2021/03/18 09:15:58;;;;;;;14.82;3.50;;;9.40;99.90;;;;;;5016164;28;20048;-87
2021/03/18 09:18:33;;;;;;;16.77;4.35;;;9.50;99.90;;;;;;5010876;28;20166;-87
2021/03/18 09:21:08;;;;;;;17.95;4.35;;;9.50;99.90;;;;;;5010610;28;20054;-88
2021/03/18 09:23:38;;;;;;;14.52;4.95;;;9.60;99.90;;;;;;5010174;28;20045;-87
2021/03/18 09:26:07;;;;;;;16.60;4.20;;;9.50;99.90;;;;;;5011380;28;20042;-87
2021/03/18 09:28:35;;;;;;;17.98;4.82;;;9.60;99.90;;;;;;5012076;28;20041;-88
2021/03/18 09:31:03;;;;;;;13.02;4.35;;;9.70;99.90;;;;;;5010502;28;20049;-88
2021/03/18 09:33:33;;;;;;;13.00;4.70;;;9.80;99.90;;;;;;5012472;28;20053;-88
2021/03/18 09:36:21;;;;;;;17.15;4.00;;;9.90;99.90;;;;;;5013086;28;20045;-88
2021/03/18 09:39:09;;;;;;;14.25;4.05;;;10.10;99.90;;;;;;5009271;28;20053;-88
2021/03/18 09:41:48;;;;;;;11.27;3.83;;;10.20;99.90;;;;;;5009287;28;20475;-87
2021/03/18 09:44:22;;;;;;;;;;;10.30;99.90;;;;;;5020858;28;20045;-88
2021/03/18 09:46:51;;;;;;;12.23;3.67;;;10.20;99.90;;;;;;5014411;28;19922;-88
2021/03/18 09:49:45;;;;;;;12.02;3.80;;;10.30;99.90;;;;;;5015056;28;20493;-87
2021/03/18 09:52:17;;;;;;;14.73;3.58;;;10.30;99.90;;;;;;5008102;28;20065;-88
2021/03/18 09:54:44;;;;;;;14.43;4.32;;;10.40;99.90;;;;;;5015095;28;20099;-88
2021/03/18 09:57:11;;;;;;;15.30;4.38;;;10.50;99.90;;;;;;5015334;28;20046;-88
2021/03/18 09:59:38;;;;;;;13.90;4.05;;;10.60;99.90;;;;;;5010073;28;20195;-87
2021/03/18 10:02:08;;;;;;;11.80;4.20;;;10.50;99.90;;;;;;5003193;28;20045;-87
2021/03/18 10:04:39;;;;;;;15.98;4.00;;;10.50;99.90;;;;;;5010021;28;20387;-87
2021/03/18 10:07:07;;;;;;;15.00;4.10;;;10.50;99.90;;;;;;5014570;28;20531;-88
2021/03/18 10:09:37;;;;;;;16.15;4.22;;;10.60;99.90;;;;;;5031128;28;20087;-88
2021/03/18 10:12:05;;;;;;;18.85;5.18;;;10.60;99.90;;;;;;5001565;28;20132;-88
2021/03/18 10:14:43;;;;;;;17.60;4.72;;;10.60;99.90;;;;;;5000757;28;20045;-88
2021/03/18 10:17:22;;;;;;;12.52;4.63;;;10.60;99.90;;;;;;4995850;28;20081;-87
2021/03/18 10:19:50;;;;;;;;;;;10.70;99.90;;;;;;5004545;28;20038;-88
2021/03/18 10:22:19;;;;;;;12.70;4.30;;;10.70;99.90;;;;;;4993430;28;20015;-87
2021/03/18 10:24:58;;;;;;;16.00;4.85;;;10.70;99.90;;;;;;5010764;28;20050;-87
2021/03/18 10:27:31;;;;;;;14.65;4.40;;;10.80;99.90;;;;;;5008224;28;20109;-87
2021/03/18 10:30:07;;;;;;;15.52;4.47;;;10.80;99.90;;;;;;5006617;28;20042;-87
2021/03/18 10:32:35;;;;;;;12.77;4.88;;;10.80;99.90;;;;;;5000460;28;20044;-87
2021/03/18 10:35:03;;;;;;;16.10;5.65;;;10.80;99.90;;;;;;5000716;28;20431;-88
2021/03/18 10:37:43;;;;;;;18.10;5.25;;;10.90;99.90;;;;;;4994035;28;20041;-88
2021/03/18 10:40:36;;;;;;;13.50;5.10;;;11.00;99.90;;;;;;4995013;28;20045;-88
2021/03/18 10:43:17;;;;;;;15.20;4.75;;;11.00;99.90;;;;;;5008892;28;20482;-88
2021/03/18 10:45:44;;;;;;;16.13;7.28;;;11.00;99.90;;;;;;5004478;28;20048;-88
2021/03/18 10:48:16;;;;;;;16.80;6.65;;;11.00;99.90;;;;;;4995342;28;20054;-88
2021/03/18 10:50:43;;;;;;;16.98;7.32;;;10.90;99.90;;;;;;4999725;28;20050;-88
2021/03/18 10:53:11;;;;;;;16.73;6.53;;;11.00;99.90;;;;;;4998805;28;20045;-88
2021/03/18 10:55:44;;;;;;;13.63;6.72;;;11.10;99.90;;;;;;4994727;28;20132;-88
2021/03/18 10:58:25;;;;;;;18.98;7.45;;;11.30;99.90;;;;;;5006444;28;20046;-88
2021/03/18 11:01:26;;;;;;;22.90;7.78;;;11.30;99.90;;;;;;4995908;28;20104;-88
2021/03/18 11:04:05;;;;;;;16.20;7.47;;;11.30;99.90;;;;;;4978531;28;20046;-88
2021/03/18 11:06:32;;;;;;;14.73;6.90;;;11.30;99.90;;;;;;4996568;28;20517;-88
2021/03/18 11:09:00;;;;;;;15.32;6.63;;;11.20;99.90;;;;;;4998294;28;20423;-88
2021/03/18 11:11:32;;;;;;;16.83;7.03;;;11.20;99.90;;;;;;5007316;28;20041;-88
2021/03/18 11:14:12;;;;;;;19.90;7.32;;;11.20;99.90;;;;;;4998197;28;20069;-88
2021/03/18 11:16:41;;;;;;;15.25;8.10;;;11.30;99.90;;;;;;5012872;28;20045;-88
2021/03/18 11:19:10;;;;;;;20.77;7.93;;;11.30;99.90;;;;;;5009200;28;20057;-87
2021/03/18 11:21:38;;;;;;;;;;;11.30;99.90;;;;;;5007613;28;20118;-88
2021/03/18 11:24:16;;;;;;;20.42;6.80;;;11.30;99.90;;;;;;5007485;28;19949;-88
2021/03/18 11:27:04;;;;;;;17.93;7.93;;;11.40;99.90;;;;;;5010564;28;20041;-88
2021/03/18 11:29:34;;;;;;;14.80;7.35;;;11.40;99.90;;;;;;5002627;28;20069;-88
2021/03/18 11:32:05;;;;;;;20.65;8.32;;;11.50;99.90;;;;;;4999646;28;20072;-88
2021/03/18 11:34:35;;;;;;;19.50;7.55;;;11.60;99.90;;;;;;5016205;28;20137;-88
2021/03/18 11:37:07;;;;;;;15.00;7.50;;;11.70;99.90;;;;;;4992112;28;20057;-88
2021/03/18 11:39:35;;;;;;;20.73;7.95;;;11.60;99.90;;;;;;5013841;28;20112;-88
2021/03/18 11:42:03;;;;;;;15.57;6.85;;;11.60;99.90;;;;;;5010192;28;20054;-88
2021/03/18 11:44:30;;;;;;;20.95;7.50;;;11.70;99.90;;;;;;5016206;28;20073;-88
2021/03/18 11:47:02;;;;;;;20.37;7.83;;;11.60;99.90;;;;;;5004427;28;20041;-88
2021/03/18 11:49:29;;;;;;;23.38;8.05;;;11.60;99.90;;;;;;5001797;28;20125;-88
2021/03/18 11:51:56;;;;;;;22.33;7.47;;;11.60;99.90;;;;;;5010436;28;20045;-88
2021/03/18 11:54:23;;;;;;;15.63;7.32;;;11.70;99.90;;;;;;5009733;28;20054;-88
2021/03/18 11:56:51;;;;;;;18.02;7.50;;;11.70;99.90;;;;;;5006127;28;20053;-88
2021/03/18 11:59:18;;;;;;;20.42;7.15;;;11.70;99.90;;;;;;5008830;28;20046;-86
2021/03/18 12:01:46;;;;;;;19.23;6.53;;;11.80;99.90;;;;;;5013848;28;20042;-85
2021/03/18 12:04:13;;;;;;;18.48;6.18;;;11.70;99.90;;;;;;5005927;28;20452;-84
2021/03/18 12:06:40;;;;;;;16.42;6.63;;;11.80;99.90;;;;;;5008630;28;20042;-84
2021/03/18 12:09:07;;;;;;;18.52;6.80;;;11.80;99.90;;;;;;5007333;28;20045;-84
2021/03/18 12:11:35;;;;;;;15.85;6.00;;;11.90;99.90;;;;;;5008451;28;20049;-85
2021/03/18 12:14:02;;;;;;;16.23;7.05;;;12.00;99.90;;;;;;5006464;28;20121;-84
2021/03/18 12:16:29;;;;;;;17.70;6.78;;;12.20;99.90;;;;;;5007443;28;21178;-85
2021/03/18 12:18:56;;;;;;;19.65;6.53;;;12.20;99.90;;;;;;5009623;28;20499;-85
2021/03/18 12:21:22;;;;;;;14.82;6.22;;;12.30;99.90;;;;;;5007526;28;20060;-84
2021/03/18 12:23:49;;;;;;;12.25;4.88;;;12.40;99.90;;;;;;5008183;28;20053;-87
2021/03/18 12:26:16;;;;;;;13.00;5.40;;;12.40;99.90;;;;;;5008698;28;20070;-88
2021/03/18 12:28:43;;;;;;;17.00;5.25;;;12.30;99.90;;;;;;5006948;28;20057;-88
2021/03/18 12:31:10;;;;;;;11.65;4.68;;;12.30;99.90;;;;;;4995697;28;20047;-88
2021/03/18 12:33:37;;;;;;;15.20;4.50;;;12.30;99.90;;;;;;4998999;28;20107;-87
2021/03/18 12:36:05;;;;;;;17.30;5.07;;;12.30;99.90;;;;;;5008088;28;20464;-88
2021/03/18 12:38:32;;;;;;;17.80;4.70;;;12.30;99.90;;;;;;5009133;28;20285;-88
2021/03/18 12:40:59;;;;;;;11.70;4.10;;;12.40;99.90;;;;;;5009425;28;20069;-88
2021/03/18 12:43:26;;;;;;;15.30;4.35;;;12.30;99.90;;;;;;5007102;28;20056;-87
2021/03/18 12:45:53;;;;;;;14.50;4.10;;;12.30;99.90;;;;;;5009590;28;20495;-88
2021/03/18 12:48:20;;;;;;;13.00;4.25;;;12.30;99.90;;;;;;5009513;28;20041;-88
2021/03/18 12:50:47;;;;;;;17.95;4.60;;;12.40;99.90;;;;;;5005735;28;20065;-88
2021/03/18 12:53:14;;;;;;;12.35;4.00;;;12.50;99.90;;;;;;5005033;28;20045;-87
2021/03/18 12:55:41;;;;;;;13.10;3.88;;;12.60;99.90;;;;;;5010258;28;20049;-88
2021/03/18 12:58:08;;;;;;;12.63;4.03;;;12.60;99.90;;;;;;5010817;28;20076;-88
2021/03/18 13:00:36;;;;;;;15.43;4.32;;;12.60;99.90;;;;;;5025448;28;20052;-88
2021/03/18 13:03:04;;;;;;;11.85;3.83;;;12.70;99.90;;;;;;5019890;28;20046;-88
2021/03/18 13:05:33;;;;;;;13.70;3.92;;;12.70;99.90;;;;;;5010895;28;20065;-88
2021/03/18 13:08:00;;;;;;;17.88;4.43;;;12.80;99.90;;;;;;5005282;28;20034;-88